sensor_id;sensor_type;location;lat;lon;timestamp;temperature;humidity
18611;DHT22;9435;52.122;5.502;2023-04-25T00:00:22;6.30;99.90
18611;DHT22;9435;52.122;5.502;2023-04-25T00:02:49;6.20;99.90
18611;DHT22;9435;52.122;5.502;2023-04-25T00:05:16;6.10;99.90
18611;DHT22;9435;52.122;5.502;2023-04-25T00:07:45;6.10;99.90
18611;DHT22;9435;52.122;5.502;2023-04-25T00:10:12;6.10;99.90
18611;DHT22;9435;52.122;5.502;2023-04-25T00:12:40;5.90;99.90
18611;DHT22;9435;52.122;5.502;2023-04-25T00:15:08;5.80;99.90
18611;DHT22;9435;52.122;5.502;2023-04-25T00:17:36;5.70;99.90
18611;DHT22;9435;52.122;5.502;2023-04-25T00:20:04;5.70;99.90
18611;DHT22;9435;52.122;5.502;2023-04-25T00:22:35;5.60;99.90
18611;DHT22;9435;52.122;5.502;2023-04-25T00:25:04;5.60;99.90
18611;DHT22;9435;52.122;5.502;2023-04-25T00:27:32;5.60;99.90
18611;DHT22;9435;52.122;5.502;2023-04-25T00:29:59;5.60;99.90
18611;DHT22;9435;52.122;5.502;2023-04-25T00:32:26;5.50;99.90
18611;DHT22;9435;52.122;5.502;2023-04-25T00:34:54;5.50;99.90
18611;DHT22;9435;52.122;5.502;2023-04-25T00:37:21;5.50;99.90
18611;DHT22;9435;52.122;5.502;2023-04-25T00:39:48;5.50;99.90
18611;DHT22;9435;52.122;5.502;2023-04-25T00:42:16;5.50;99.90
18611;DHT22;9435;52.122;5.502;2023-04-25T00:44:45;5.50;99.90
18611;DHT22;9435;52.122;5.502;2023-04-25T00:47:12;5.50;99.90
18611;DHT22;9435;52.122;5.502;2023-04-25T00:49:39;5.50;99.90
18611;DHT22;9435;52.122;5.502;2023-04-25T00:52:06;5.50;99.90
18611;DHT22;9435;52.122;5.502;2023-04-25T00:54:33;5.50;99.90
18611;DHT22;9435;52.122;5.502;2023-04-25T00:57:00;5.50;99.90
18611;DHT22;9435;52.122;5.502;2023-04-25T00:59:29;5.40;99.90
18611;DHT22;9435;52.122;5.502;2023-04-25T01:01:57;5.50;99.90
18611;DHT22;9435;52.122;5.502;2023-04-25T01:04:25;5.50;99.90
18611;DHT22;9435;52.122;5.502;2023-04-25T01:06:53;5.50;99.90
18611;DHT22;9435;52.122;5.502;2023-04-25T01:09:22;5.50;99.90
18611;DHT22;9435;52.122;5.502;2023-04-25T01:11:49;5.40;99.90
18611;DHT22;9435;52.122;5.502;2023-04-25T01:14:16;5.40;99.90
18611;DHT22;9435;52.122;5.502;2023-04-25T01:16:45;5.40;99.90
18611;DHT22;9435;52.122;5.502;2023-04-25T01:19:16;5.50;99.90
18611;DHT22;9435;52.122;5.502;2023-04-25T01:21:45;5.40;99.90
18611;DHT22;9435;52.122;5.502;2023-04-25T01:24:13;5.40;99.90
18611;DHT22;9435;52.122;5.502;2023-04-25T01:26:41;5.40;99.90
18611;DHT22;9435;52.122;5.502;2023-04-25T01:29:10;5.30;99.90
18611;DHT22;9435;52.122;5.502;2023-04-25T01:31:38;5.30;99.90
18611;DHT22;9435;52.122;5.502;2023-04-25T01:34:05;5.30;99.90
18611;DHT22;9435;52.122;5.502;2023-04-25T01:36:32;5.20;99.90
18611;DHT22;9435;52.122;5.502;2023-04-25T01:39:01;5.20;99.90
18611;DHT22;9435;52.122;5.502;2023-04-25T01:41:29;5.20;99.90
18611;DHT22;9435;52.122;5.502;2023-04-25T01:43:56;5.10;99.90
18611;DHT22;9435;52.122;5.502;2023-04-25T01:46:23;5.20;99.90
18611;DHT22;9435;52.122;5.502;2023-04-25T01:48:51;5.20;99.90
18611;DHT22;9435;52.122;5.502;2023-04-25T01:51:18;5.20;99.90
18611;DHT22;9435;52.122;5.502;2023-04-25T01:53:45;5.20;99.90
18611;DHT22;9435;52.122;5.502;2023-04-25T01:56:13;5.10;99.90
18611;DHT22;9435;52.122;5.502;2023-04-25T01:58:40;5.10;99.90
18611;DHT22;9435;52.122;5.502;2023-04-25T02:01:07;5.10;99.90
18611;DHT22;9435;52.122;5.502;2023-04-25T02:03:36;5.10;99.90
18611;DHT22;9435;52.122;5.502;2023-04-25T02:06:03;5.00;99.90
18611;DHT22;9435;52.122;5.502;2023-04-25T02:08:30;4.90;99.90
18611;DHT22;9435;52.122;5.502;2023-04-25T02:10:57;4.90;99.90
18611;DHT22;9435;52.122;5.502;2023-04-25T02:13:26;4.80;99.90
18611;DHT22;9435;52.122;5.502;2023-04-25T02:15:53;4.70;99.90
18611;DHT22;9435;52.122;5.502;2023-04-25T02:18:20;4.70;99.90
18611;DHT22;9435;52.122;5.502;2023-04-25T02:20:47;4.70;99.90
18611;DHT22;9435;52.122;5.502;2023-04-25T02:23:14;4.60;99.90
18611;DHT22;9435;52.122;5.502;2023-04-25T02:25:42;4.60;99.90
18611;DHT22;9435;52.122;5.502;2023-04-25T02:28:09;4.40;99.90
18611;DHT22;9435;52.122;5.502;2023-04-25T02:30:37;4.40;99.90
18611;DHT22;9435;52.122;5.502;2023-04-25T02:33:04;4.30;99.90
18611;DHT22;9435;52.122;5.502;2023-04-25T02:35:31;4.30;99.90
18611;DHT22;9435;52.122;5.502;2023-04-25T02:37:58;4.10;99.90
18611;DHT22;9435;52.122;5.502;2023-04-25T02:40:26;4.10;99.90
18611;DHT22;9435;52.122;5.502;2023-04-25T02:42:53;4.00;99.90
18611;DHT22;9435;52.122;5.502;2023-04-25T02:45:20;4.00;99.90
18611;DHT22;9435;52.122;5.502;2023-04-25T02:47:48;3.80;99.90
18611;DHT22;9435;52.122;5.502;2023-04-25T02:50:15;3.70;99.90
18611;DHT22;9435;52.122;5.502;2023-04-25T02:52:44;3.70;99.90
18611;DHT22;9435;52.122;5.502;2023-04-25T02:55:12;3.70;99.90
18611;DHT22;9435;52.122;5.502;2023-04-25T02:57:39;3.70;99.90
18611;DHT22;9435;52.122;5.502;2023-04-25T03:00:07;3.70;99.90
18611;DHT22;9435;52.122;5.502;2023-04-25T03:02:34;3.70;99.90
18611;DHT22;9435;52.122;5.502;2023-04-25T03:05:03;3.70;99.90
18611;DHT22;9435;52.122;5.502;2023-04-25T03:07:30;3.80;99.90
18611;DHT22;9435;52.122;5.502;2023-04-25T03:09:57;3.80;99.90
18611;DHT22;9435;52.122;5.502;2023-04-25T03:12:26;3.80;99.90
18611;DHT22;9435;52.122;5.502;2023-04-25T03:14:54;3.90;99.90
18611;DHT22;9435;52.122;5.502;2023-04-25T03:17:23;3.90;99.90
18611;DHT22;9435;52.122;5.502;2023-04-25T03:19:51;4.00;99.90
18611;DHT22;9435;52.122;5.502;2023-04-25T03:22:19;3.90;99.90
18611;DHT22;9435;52.122;5.502;2023-04-25T03:24:46;3.80;99.90
18611;DHT22;9435;52.122;5.502;2023-04-25T03:27:13;3.80;99.90
18611;DHT22;9435;52.122;5.502;2023-04-25T03:29:41;3.80;99.90
18611;DHT22;9435;52.122;5.502;2023-04-25T03:32:08;3.80;99.90
18611;DHT22;9435;52.122;5.502;2023-04-25T03:34:35;3.70;99.90
18611;DHT22;9435;52.122;5.502;2023-04-25T03:37:02;3.60;99.90
18611;DHT22;9435;52.122;5.502;2023-04-25T03:39:30;3.50;99.90
18611;DHT22;9435;52.122;5.502;2023-04-25T03:41:57;3.60;99.90
18611;DHT22;9435;52.122;5.502;2023-04-25T03:44:24;3.60;99.90
18611;DHT22;9435;52.122;5.502;2023-04-25T03:46:51;3.60;99.90
18611;DHT22;9435;52.122;5.502;2023-04-25T03:49:18;3.70;99.90
18611;DHT22;9435;52.122;5.502;2023-04-25T03:51:45;3.80;99.90
18611;DHT22;9435;52.122;5.502;2023-04-25T03:54:12;3.90;99.90
18611;DHT22;9435;52.122;5.502;2023-04-25T03:56:40;3.90;99.90
18611;DHT22;9435;52.122;5.502;2023-04-25T03:59:07;3.90;99.90
18611;DHT22;9435;52.122;5.502;2023-04-25T04:01:34;3.90;99.90
18611;DHT22;9435;52.122;5.502;2023-04-25T04:04:02;3.90;99.90
18611;DHT22;9435;52.122;5.502;2023-04-25T04:06:29;3.90;99.90
18611;DHT22;9435;52.122;5.502;2023-04-25T04:08:56;4.00;99.90
18611;DHT22;9435;52.122;5.502;2023-04-25T04:11:23;4.10;99.90
18611;DHT22;9435;52.122;5.502;2023-04-25T04:13:51;4.10;99.90
18611;DHT22;9435;52.122;5.502;2023-04-25T04:16:18;4.10;99.90
18611;DHT22;9435;52.122;5.502;2023-04-25T04:18:46;4.20;99.90
18611;DHT22;9435;52.122;5.502;2023-04-25T04:21:13;4.20;99.90
18611;DHT22;9435;52.122;5.502;2023-04-25T04:23:40;4.20;99.90
18611;DHT22;9435;52.122;5.502;2023-04-25T04:26:07;4.30;99.90
18611;DHT22;9435;52.122;5.502;2023-04-25T04:28:34;4.30;99.90
18611;DHT22;9435;52.122;5.502;2023-04-25T04:31:03;4.40;99.90
18611;DHT22;9435;52.122;5.502;2023-04-25T04:33:30;4.50;99.90
18611;DHT22;9435;52.122;5.502;2023-04-25T04:35:57;4.50;99.90
18611;DHT22;9435;52.122;5.502;2023-04-25T04:38:24;4.60;99.90
18611;DHT22;9435;52.122;5.502;2023-04-25T04:40:51;4.60;99.90
18611;DHT22;9435;52.122;5.502;2023-04-25T04:43:19;4.60;99.90
18611;DHT22;9435;52.122;5.502;2023-04-25T04:45:46;4.70;99.90
18611;DHT22;9435;52.122;5.502;2023-04-25T04:48:14;4.70;99.90
18611;DHT22;9435;52.122;5.502;2023-04-25T04:50:43;4.70;99.90
18611;DHT22;9435;52.122;5.502;2023-04-25T04:53:12;4.70;99.90
18611;DHT22;9435;52.122;5.502;2023-04-25T04:55:40;4.70;99.90
18611;DHT22;9435;52.122;5.502;2023-04-25T04:58:08;4.80;99.90
18611;DHT22;9435;52.122;5.502;2023-04-25T05:00:35;4.80;99.90
18611;DHT22;9435;52.122;5.502;2023-04-25T05:03:03;4.80;99.90
18611;DHT22;9435;52.122;5.502;2023-04-25T05:05:32;4.80;99.90
18611;DHT22;9435;52.122;5.502;2023-04-25T05:07:59;4.80;99.90
18611;DHT22;9435;52.122;5.502;2023-04-25T05:10:26;4.80;99.90
18611;DHT22;9435;52.122;5.502;2023-04-25T05:12:53;4.90;99.90
18611;DHT22;9435;52.122;5.502;2023-04-25T05:15:20;4.80;99.90
18611;DHT22;9435;52.122;5.502;2023-04-25T05:17:47;4.90;99.90
18611;DHT22;9435;52.122;5.502;2023-04-25T05:20:14;5.00;99.90
18611;DHT22;9435;52.122;5.502;2023-04-25T05:22:43;5.00;99.90
18611;DHT22;9435;52.122;5.502;2023-04-25T05:25:10;5.00;99.90
18611;DHT22;9435;52.122;5.502;2023-04-25T05:27:37;5.10;99.90
18611;DHT22;9435;52.122;5.502;2023-04-25T05:30:05;5.10;99.90
18611;DHT22;9435;52.122;5.502;2023-04-25T05:32:33;5.20;99.90
18611;DHT22;9435;52.122;5.502;2023-04-25T05:35:00;5.20;99.90
18611;DHT22;9435;52.122;5.502;2023-04-25T05:37:28;5.20;99.90
18611;DHT22;9435;52.122;5.502;2023-04-25T05:39:57;5.30;99.90
18611;DHT22;9435;52.122;5.502;2023-04-25T05:42:24;5.40;99.90
18611;DHT22;9435;52.122;5.502;2023-04-25T05:44:51;5.40;99.90
18611;DHT22;9435;52.122;5.502;2023-04-25T05:47:18;5.40;99.90
18611;DHT22;9435;52.122;5.502;2023-04-25T05:49:45;5.50;99.90
18611;DHT22;9435;52.122;5.502;2023-04-25T05:52:13;5.50;99.90
18611;DHT22;9435;52.122;5.502;2023-04-25T05:54:40;5.60;99.90
18611;DHT22;9435;52.122;5.502;2023-04-25T05:57:14;5.70;99.90
18611;DHT22;9435;52.122;5.502;2023-04-25T05:59:44;5.70;99.90
18611;DHT22;9435;52.122;5.502;2023-04-25T06:02:11;5.80;99.90
18611;DHT22;9435;52.122;5.502;2023-04-25T06:04:38;5.80;99.90
18611;DHT22;9435;52.122;5.502;2023-04-25T06:07:05;5.90;99.90
18611;DHT22;9435;52.122;5.502;2023-04-25T06:09:32;5.90;99.90
18611;DHT22;9435;52.122;5.502;2023-04-25T06:11:59;6.00;99.90
18611;DHT22;9435;52.122;5.502;2023-04-25T06:14:28;6.00;99.90
18611;DHT22;9435;52.122;5.502;2023-04-25T06:16:56;6.10;99.90
18611;DHT22;9435;52.122;5.502;2023-04-25T06:19:23;6.20;99.90
18611;DHT22;9435;52.122;5.502;2023-04-25T06:21:50;6.20;99.90
18611;DHT22;9435;52.122;5.502;2023-04-25T06:24:17;6.30;99.90
18611;DHT22;9435;52.122;5.502;2023-04-25T06:26:44;6.40;99.90
18611;DHT22;9435;52.122;5.502;2023-04-25T06:29:13;6.70;99.90
18611;DHT22;9435;52.122;5.502;2023-04-25T06:31:41;7.10;99.90
18611;DHT22;9435;52.122;5.502;2023-04-25T06:34:08;7.40;99.90
18611;DHT22;9435;52.122;5.502;2023-04-25T06:36:35;7.60;99.90
18611;DHT22;9435;52.122;5.502;2023-04-25T06:39:02;7.60;99.90
18611;DHT22;9435;52.122;5.502;2023-04-25T06:41:29;7.60;99.90
18611;DHT22;9435;52.122;5.502;2023-04-25T06:43:56;7.60;99.90
18611;DHT22;9435;52.122;5.502;2023-04-25T06:46:23;7.60;99.90
18611;DHT22;9435;52.122;5.502;2023-04-25T06:48:52;7.60;99.90
18611;DHT22;9435;52.122;5.502;2023-04-25T06:51:19;7.60;99.90
18611;DHT22;9435;52.122;5.502;2023-04-25T06:53:46;7.50;99.90
18611;DHT22;9435;52.122;5.502;2023-04-25T06:56:13;7.50;99.90
18611;DHT22;9435;52.122;5.502;2023-04-25T06:58:40;7.50;99.90
18611;DHT22;9435;52.122;5.502;2023-04-25T07:01:07;7.50;99.90
18611;DHT22;9435;52.122;5.502;2023-04-25T07:03:34;7.50;99.90
18611;DHT22;9435;52.122;5.502;2023-04-25T07:06:04;7.50;99.90
18611;DHT22;9435;52.122;5.502;2023-04-25T07:08:31;7.60;99.90
18611;DHT22;9435;52.122;5.502;2023-04-25T07:10:58;7.70;99.90
18611;DHT22;9435;52.122;5.502;2023-04-25T07:13:25;7.80;99.90
18611;DHT22;9435;52.122;5.502;2023-04-25T07:15:52;7.90;99.90
18611;DHT22;9435;52.122;5.502;2023-04-25T07:18:19;8.00;99.90
18611;DHT22;9435;52.122;5.502;2023-04-25T07:20:46;7.90;99.90
18611;DHT22;9435;52.122;5.502;2023-04-25T07:23:15;7.90;99.90
18611;DHT22;9435;52.122;5.502;2023-04-25T07:25:42;8.10;99.90
18611;DHT22;9435;52.122;5.502;2023-04-25T07:28:09;8.30;99.90
18611;DHT22;9435;52.122;5.502;2023-04-25T07:30:36;8.70;99.90
18611;DHT22;9435;52.122;5.502;2023-04-25T07:33:03;9.00;99.90
18611;DHT22;9435;52.122;5.502;2023-04-25T07:35:30;9.30;99.90
18611;DHT22;9435;52.122;5.502;2023-04-25T07:37:57;9.10;99.90
18611;DHT22;9435;52.122;5.502;2023-04-25T07:40:26;9.00;99.90
18611;DHT22;9435;52.122;5.502;2023-04-25T07:42:53;8.70;99.90
18611;DHT22;9435;52.122;5.502;2023-04-25T07:45:20;8.80;99.90
18611;DHT22;9435;52.122;5.502;2023-04-25T07:47:47;8.70;99.90
18611;DHT22;9435;52.122;5.502;2023-04-25T07:50:14;8.70;99.90
18611;DHT22;9435;52.122;5.502;2023-04-25T07:52:41;8.60;99.90
18611;DHT22;9435;52.122;5.502;2023-04-25T07:55:09;8.50;99.90
18611;DHT22;9435;52.122;5.502;2023-04-25T07:57:37;8.60;99.90
18611;DHT22;9435;52.122;5.502;2023-04-25T08:00:06;8.70;99.90
18611;DHT22;9435;52.122;5.502;2023-04-25T08:02:35;8.60;99.90
18611;DHT22;9435;52.122;5.502;2023-04-25T08:05:02;8.60;99.90
18611;DHT22;9435;52.122;5.502;2023-04-25T08:07:29;8.40;99.90
18611;DHT22;9435;52.122;5.502;2023-04-25T08:09:56;8.50;99.90
18611;DHT22;9435;52.122;5.502;2023-04-25T08:12:23;8.90;99.90
18611;DHT22;9435;52.122;5.502;2023-04-25T08:14:51;9.10;99.90
18611;DHT22;9435;52.122;5.502;2023-04-25T08:17:18;9.20;99.90
18611;DHT22;9435;52.122;5.502;2023-04-25T08:19:45;9.20;99.90
18611;DHT22;9435;52.122;5.502;2023-04-25T08:22:13;9.20;99.90
18611;DHT22;9435;52.122;5.502;2023-04-25T08:24:40;9.30;99.90
18611;DHT22;9435;52.122;5.502;2023-04-25T08:27:07;9.40;99.90
18611;DHT22;9435;52.122;5.502;2023-04-25T08:29:35;9.50;99.90
18611;DHT22;9435;52.122;5.502;2023-04-25T08:32:04;9.20;99.90
18611;DHT22;9435;52.122;5.502;2023-04-25T08:34:31;8.90;99.90
18611;DHT22;9435;52.122;5.502;2023-04-25T08:36:58;8.70;99.90
18611;DHT22;9435;52.122;5.502;2023-04-25T08:39:25;8.50;99.90
18611;DHT22;9435;52.122;5.502;2023-04-25T08:41:52;8.40;99.90
18611;DHT22;9435;52.122;5.502;2023-04-25T08:44:21;8.40;99.90
18611;DHT22;9435;52.122;5.502;2023-04-25T08:46:49;8.60;99.90
18611;DHT22;9435;52.122;5.502;2023-04-25T08:49:18;8.80;99.90
18611;DHT22;9435;52.122;5.502;2023-04-25T08:51:46;8.90;99.90
18611;DHT22;9435;52.122;5.502;2023-04-25T08:54:14;9.00;99.90
18611;DHT22;9435;52.122;5.502;2023-04-25T08:56:44;9.20;99.90
18611;DHT22;9435;52.122;5.502;2023-04-25T08:59:12;9.30;99.90
18611;DHT22;9435;52.122;5.502;2023-04-25T09:01:39;9.50;99.90
18611;DHT22;9435;52.122;5.502;2023-04-25T09:04:06;9.40;99.90
18611;DHT22;9435;52.122;5.502;2023-04-25T09:06:35;9.60;99.90
18611;DHT22;9435;52.122;5.502;2023-04-25T09:09:03;9.80;99.90
18611;DHT22;9435;52.122;5.502;2023-04-25T09:11:31;9.80;99.90
18611;DHT22;9435;52.122;5.502;2023-04-25T09:14:15;10.20;99.90
18611;DHT22;9435;52.122;5.502;2023-04-25T09:17:03;10.40;99.90
18611;DHT22;9435;52.122;5.502;2023-04-25T09:19:31;10.40;99.90
18611;DHT22;9435;52.122;5.502;2023-04-25T09:22:03;10.40;99.90
18611;DHT22;9435;52.122;5.502;2023-04-25T09:24:34;10.70;99.90
18611;DHT22;9435;52.122;5.502;2023-04-25T09:27:04;10.90;99.90
18611;DHT22;9435;52.122;5.502;2023-04-25T09:29:31;11.30;99.90
18611;DHT22;9435;52.122;5.502;2023-04-25T09:32:17;11.10;99.90
18611;DHT22;9435;52.122;5.502;2023-04-25T09:34:46;10.50;99.90
18611;DHT22;9435;52.122;5.502;2023-04-25T09:37:19;10.20;99.90
18611;DHT22;9435;52.122;5.502;2023-04-25T09:39:47;10.30;99.90
18611;DHT22;9435;52.122;5.502;2023-04-25T09:42:15;10.60;99.90
18611;DHT22;9435;52.122;5.502;2023-04-25T09:44:43;10.60;99.90
18611;DHT22;9435;52.122;5.502;2023-04-25T09:47:11;10.20;99.90
18611;DHT22;9435;52.122;5.502;2023-04-25T09:49:40;9.80;99.90
18611;DHT22;9435;52.122;5.502;2023-04-25T09:52:14;9.30;99.90
18611;DHT22;9435;52.122;5.502;2023-04-25T09:54:42;9.00;99.90
18611;DHT22;9435;52.122;5.502;2023-04-25T09:57:11;8.60;99.90
18611;DHT22;9435;52.122;5.502;2023-04-25T09:59:42;8.40;99.90
18611;DHT22;9435;52.122;5.502;2023-04-25T10:02:11;8.30;99.90
18611;DHT22;9435;52.122;5.502;2023-04-25T10:04:38;8.40;99.90
18611;DHT22;9435;52.122;5.502;2023-04-25T10:07:06;8.60;99.90
18611;DHT22;9435;52.122;5.502;2023-04-25T10:09:36;8.80;99.90
18611;DHT22;9435;52.122;5.502;2023-04-25T10:12:07;9.00;99.90
18611;DHT22;9435;52.122;5.502;2023-04-25T10:14:35;9.00;99.90
18611;DHT22;9435;52.122;5.502;2023-04-25T10:17:02;9.20;99.90
18611;DHT22;9435;52.122;5.502;2023-04-25T10:19:30;9.60;99.90
18611;DHT22;9435;52.122;5.502;2023-04-25T10:22:06;9.80;99.90
18611;DHT22;9435;52.122;5.502;2023-04-25T10:24:35;10.00;99.90
18611;DHT22;9435;52.122;5.502;2023-04-25T10:27:02;10.20;99.90
18611;DHT22;9435;52.122;5.502;2023-04-25T10:29:31;10.30;99.90
18611;DHT22;9435;52.122;5.502;2023-04-25T10:31:59;10.20;99.90
18611;DHT22;9435;52.122;5.502;2023-04-25T10:34:38;10.10;99.90
18611;DHT22;9435;52.122;5.502;2023-04-25T10:37:09;10.00;99.90
18611;DHT22;9435;52.122;5.502;2023-04-25T10:39:39;10.10;99.90
18611;DHT22;9435;52.122;5.502;2023-04-25T10:42:06;10.20;99.90
18611;DHT22;9435;52.122;5.502;2023-04-25T10:44:37;10.30;99.90
18611;DHT22;9435;52.122;5.502;2023-04-25T10:47:06;10.60;99.90
18611;DHT22;9435;52.122;5.502;2023-04-25T10:49:35;10.90;99.90
18611;DHT22;9435;52.122;5.502;2023-04-25T10:52:19;10.80;99.90
18611;DHT22;9435;52.122;5.502;2023-04-25T10:54:52;10.70;99.90
18611;DHT22;9435;52.122;5.502;2023-04-25T10:57:30;10.30;99.90
18611;DHT22;9435;52.122;5.502;2023-04-25T11:00:06;10.30;99.90
18611;DHT22;9435;52.122;5.502;2023-04-25T11:02:37;10.40;99.90
18611;DHT22;9435;52.122;5.502;2023-04-25T11:05:05;11.00;99.90
18611;DHT22;9435;52.122;5.502;2023-04-25T11:07:38;11.20;99.90
18611;DHT22;9435;52.122;5.502;2023-04-25T11:10:06;11.40;99.90
18611;DHT22;9435;52.122;5.502;2023-04-25T11:12:33;11.80;99.90
18611;DHT22;9435;52.122;5.502;2023-04-25T11:15:03;11.60;99.90
18611;DHT22;9435;52.122;5.502;2023-04-25T11:17:31;11.50;99.90
18611;DHT22;9435;52.122;5.502;2023-04-25T11:19:58;11.20;99.90
18611;DHT22;9435;52.122;5.502;2023-04-25T11:22:26;10.80;99.90
18611;DHT22;9435;52.122;5.502;2023-04-25T11:24:54;9.80;99.90
18611;DHT22;9435;52.122;5.502;2023-04-25T11:27:21;9.30;99.90
18611;DHT22;9435;52.122;5.502;2023-04-25T11:29:50;8.50;99.90
18611;DHT22;9435;52.122;5.502;2023-04-25T11:32:19;8.20;99.90
18611;DHT22;9435;52.122;5.502;2023-04-25T11:34:46;7.90;99.90
18611;DHT22;9435;52.122;5.502;2023-04-25T11:37:14;7.60;99.90
18611;DHT22;9435;52.122;5.502;2023-04-25T11:39:44;7.50;99.90
18611;DHT22;9435;52.122;5.502;2023-04-25T11:42:12;7.50;99.90
18611;DHT22;9435;52.122;5.502;2023-04-25T11:44:40;7.50;99.90
18611;DHT22;9435;52.122;5.502;2023-04-25T11:47:07;7.40;99.90
18611;DHT22;9435;52.122;5.502;2023-04-25T11:49:36;7.50;99.90
18611;DHT22;9435;52.122;5.502;2023-04-25T11:52:03;7.80;99.90
18611;DHT22;9435;52.122;5.502;2023-04-25T11:54:35;8.00;99.90
18611;DHT22;9435;52.122;5.502;2023-04-25T11:57:03;8.30;99.90
18611;DHT22;9435;52.122;5.502;2023-04-25T11:59:30;8.40;99.90
18611;DHT22;9435;52.122;5.502;2023-04-25T12:01:57;8.70;99.90
18611;DHT22;9435;52.122;5.502;2023-04-25T12:04:26;8.90;99.90
18611;DHT22;9435;52.122;5.502;2023-04-25T12:06:58;9.20;99.90
18611;DHT22;9435;52.122;5.502;2023-04-25T12:09:31;9.70;99.90
18611;DHT22;9435;52.122;5.502;2023-04-25T12:11:59;10.10;99.90
18611;DHT22;9435;52.122;5.502;2023-04-25T12:14:29;10.30;99.90
18611;DHT22;9435;52.122;5.502;2023-04-25T12:16:58;10.50;99.90
18611;DHT22;9435;52.122;5.502;2023-04-25T12:19:26;10.60;99.90
18611;DHT22;9435;52.122;5.502;2023-04-25T12:21:53;10.90;99.90
18611;DHT22;9435;52.122;5.502;2023-04-25T12:24:24;11.10;99.90
18611;DHT22;9435;52.122;5.502;2023-04-25T12:26:52;11.10;99.90
18611;DHT22;9435;52.122;5.502;2023-04-25T12:29:21;11.00;99.90
18611;DHT22;9435;52.122;5.502;2023-04-25T12:31:50;11.00;99.90
18611;DHT22;9435;52.122;5.502;2023-04-25T12:34:18;11.10;99.90
18611;DHT22;9435;52.122;5.502;2023-04-25T12:36:45;11.00;99.90
18611;DHT22;9435;52.122;5.502;2023-04-25T12:39:16;11.00;99.90
18611;DHT22;9435;52.122;5.502;2023-04-25T12:41:44;10.60;99.90
18611;DHT22;9435;52.122;5.502;2023-04-25T12:44:12;10.50;99.90
18611;DHT22;9435;52.122;5.502;2023-04-25T12:46:39;10.30;99.90
18611;DHT22;9435;52.122;5.502;2023-04-25T12:49:07;10.70;99.90
18611;DHT22;9435;52.122;5.502;2023-04-25T12:51:35;11.00;99.90
18611;DHT22;9435;52.122;5.502;2023-04-25T12:54:03;11.20;99.90
18611;DHT22;9435;52.122;5.502;2023-04-25T12:56:30;11.30;99.90
18611;DHT22;9435;52.122;5.502;2023-04-25T12:58:59;11.30;99.90
18611;DHT22;9435;52.122;5.502;2023-04-25T13:01:26;11.40;99.90
18611;DHT22;9435;52.122;5.502;2023-04-25T13:03:53;11.60;99.90
18611;DHT22;9435;52.122;5.502;2023-04-25T13:06:20;11.70;99.90
18611;DHT22;9435;52.122;5.502;2023-04-25T13:08:48;11.70;99.90
18611;DHT22;9435;52.122;5.502;2023-04-25T13:11:15;11.80;99.90
18611;DHT22;9435;52.122;5.502;2023-04-25T13:13:43;11.30;99.90
18611;DHT22;9435;52.122;5.502;2023-04-25T13:16:11;11.30;99.90
18611;DHT22;9435;52.122;5.502;2023-04-25T13:18:39;11.60;99.90
18611;DHT22;9435;52.122;5.502;2023-04-25T13:21:07;11.70;99.90
18611;DHT22;9435;52.122;5.502;2023-04-25T13:23:34;11.30;99.90
18611;DHT22;9435;52.122;5.502;2023-04-25T13:26:01;11.00;99.90
18611;DHT22;9435;52.122;5.502;2023-04-25T13:28:28;10.70;99.90
18611;DHT22;9435;52.122;5.502;2023-04-25T13:30:55;10.70;99.90
18611;DHT22;9435;52.122;5.502;2023-04-25T13:33:24;10.30;99.90
18611;DHT22;9435;52.122;5.502;2023-04-25T13:35:51;10.30;99.90
18611;DHT22;9435;52.122;5.502;2023-04-25T13:38:22;10.10;99.90
18611;DHT22;9435;52.122;5.502;2023-04-25T13:40:49;10.30;99.90
18611;DHT22;9435;52.122;5.502;2023-04-25T13:43:18;10.40;99.90
18611;DHT22;9435;52.122;5.502;2023-04-25T13:45:46;10.30;99.90
18611;DHT22;9435;52.122;5.502;2023-04-25T13:48:13;10.30;99.90
18611;DHT22;9435;52.122;5.502;2023-04-25T13:50:41;10.70;99.90
18611;DHT22;9435;52.122;5.502;2023-04-25T13:53:08;10.80;99.90
18611;DHT22;9435;52.122;5.502;2023-04-25T13:55:36;10.90;99.90
18611;DHT22;9435;52.122;5.502;2023-04-25T13:58:04;10.70;99.90
18611;DHT22;9435;52.122;5.502;2023-04-25T14:00:34;10.80;99.90
18611;DHT22;9435;52.122;5.502;2023-04-25T14:03:02;11.20;99.90
18611;DHT22;9435;52.122;5.502;2023-04-25T14:05:33;11.50;99.90
18611;DHT22;9435;52.122;5.502;2023-04-25T14:08:05;11.30;99.90
18611;DHT22;9435;52.122;5.502;2023-04-25T14:10:33;10.80;99.90
18611;DHT22;9435;52.122;5.502;2023-04-25T14:13:00;10.40;99.90
18611;DHT22;9435;52.122;5.502;2023-04-25T14:15:29;9.80;99.90
18611;DHT22;9435;52.122;5.502;2023-04-25T14:17:56;9.70;99.90
18611;DHT22;9435;52.122;5.502;2023-04-25T14:20:23;10.00;99.90
18611;DHT22;9435;52.122;5.502;2023-04-25T14:22:50;10.40;99.90
18611;DHT22;9435;52.122;5.502;2023-04-25T14:25:19;10.30;99.90
18611;DHT22;9435;52.122;5.502;2023-04-25T14:27:46;10.60;99.90
18611;DHT22;9435;52.122;5.502;2023-04-25T14:30:15;10.90;99.90
18611;DHT22;9435;52.122;5.502;2023-04-25T14:32:43;10.90;99.90
18611;DHT22;9435;52.122;5.502;2023-04-25T14:35:10;11.00;99.90
18611;DHT22;9435;52.122;5.502;2023-04-25T14:37:37;10.80;99.90
18611;DHT22;9435;52.122;5.502;2023-04-25T14:40:05;10.70;99.90
18611;DHT22;9435;52.122;5.502;2023-04-25T14:42:35;10.70;99.90
18611;DHT22;9435;52.122;5.502;2023-04-25T14:45:03;10.90;99.90
18611;DHT22;9435;52.122;5.502;2023-04-25T14:47:30;10.90;99.90
18611;DHT22;9435;52.122;5.502;2023-04-25T14:49:57;10.90;99.90
18611;DHT22;9435;52.122;5.502;2023-04-25T14:52:24;10.70;99.90
18611;DHT22;9435;52.122;5.502;2023-04-25T14:54:52;10.60;99.90
18611;DHT22;9435;52.122;5.502;2023-04-25T14:57:19;10.30;99.90
18611;DHT22;9435;52.122;5.502;2023-04-25T14:59:47;10.10;99.90
18611;DHT22;9435;52.122;5.502;2023-04-25T15:02:14;10.30;99.90
18611;DHT22;9435;52.122;5.502;2023-04-25T15:04:41;10.50;99.90
18611;DHT22;9435;52.122;5.502;2023-04-25T15:07:08;10.50;99.90
18611;DHT22;9435;52.122;5.502;2023-04-25T15:09:35;10.50;99.90
18611;DHT22;9435;52.122;5.502;2023-04-25T15:12:03;10.50;99.90
18611;DHT22;9435;52.122;5.502;2023-04-25T15:14:30;10.60;99.90
18611;DHT22;9435;52.122;5.502;2023-04-25T15:16:58;10.50;99.90
18611;DHT22;9435;52.122;5.502;2023-04-25T15:19:25;10.80;99.90
18611;DHT22;9435;52.122;5.502;2023-04-25T15:21:53;10.40;99.90
18611;DHT22;9435;52.122;5.502;2023-04-25T15:24:20;10.30;99.90
18611;DHT22;9435;52.122;5.502;2023-04-25T15:26:47;10.20;99.90
18611;DHT22;9435;52.122;5.502;2023-04-25T15:29:14;10.30;99.90
18611;DHT22;9435;52.122;5.502;2023-04-25T15:31:42;10.30;99.90
18611;DHT22;9435;52.122;5.502;2023-04-25T15:34:11;10.10;99.90
18611;DHT22;9435;52.122;5.502;2023-04-25T15:36:38;10.20;99.90
18611;DHT22;9435;52.122;5.502;2023-04-25T15:39:05;10.20;99.90
18611;DHT22;9435;52.122;5.502;2023-04-25T15:41:33;9.90;99.90
18611;DHT22;9435;52.122;5.502;2023-04-25T15:44:00;9.80;99.90
18611;DHT22;9435;52.122;5.502;2023-04-25T15:46:28;9.70;99.90
18611;DHT22;9435;52.122;5.502;2023-04-25T15:48:56;9.70;99.90
18611;DHT22;9435;52.122;5.502;2023-04-25T15:51:25;9.60;99.90
18611;DHT22;9435;52.122;5.502;2023-04-25T15:53:52;9.50;99.90
18611;DHT22;9435;52.122;5.502;2023-04-25T15:56:19;9.30;99.90
18611;DHT22;9435;52.122;5.502;2023-04-25T15:58:46;9.30;99.90
18611;DHT22;9435;52.122;5.502;2023-04-25T16:01:14;9.40;99.90